Time;durP1;ratioP1;P1;durP2;ratioP2;P2;SDS_P1;SDS_P2;PMS_P1;PMS_P2;Temp;Humidity;BMP_temperature;BMP_pressure;BME280_temperature;BME280_humidity;BME280_pressure;Samples;Min_cycle;Max_cycle;Signal;HPM_P1;HPM_P2
2022/04/07 00:00:51;;;;;;;3.47;2.05;;;;;;;8.58;81.97;94184.13;5100679;28;20035;-78
2022/04/07 00:03:17;;;;;;;4.10;2.17;;;;;;;8.53;82.12;94184.94;5097442;28;20052;-78
2022/04/07 00:05:42;;;;;;;4.82;2.20;;;;;;;8.52;82.06;94193.09;5090532;28;20051;-78
2022/04/07 00:08:08;;;;;;;4.05;2.03;;;;;;;8.51;81.69;94186.31;5090409;28;20131;-77
2022/04/07 00:10:34;;;;;;;3.83;2.22;;;;;;;8.51;82.38;94181.84;5084542;28;20040;-79
2022/04/07 00:13:00;;;;;;;3.88;2.10;;;;;;;8.53;81.72;94181.56;5089373;28;20074;-78
2022/04/07 00:15:26;;;;;;;3.35;2.30;;;;;;;8.49;82.36;94174.28;5100032;28;20520;-79
2022/04/07 00:17:52;;;;;;;6.47;2.25;;;;;;;8.50;82.41;94177.66;5107523;27;20062;-78
2022/04/07 00:20:18;;;;;;;4.13;2.10;;;;;;;8.37;82.49;94175.78;5096087;28;20414;-78
2022/04/07 00:22:44;;;;;;;4.50;2.22;;;;;;;8.40;82.47;94175.97;5104682;28;20066;-78
2022/04/07 00:25:10;;;;;;;3.75;2.03;;;;;;;8.46;82.08;94174.84;5096977;28;20043;-78
2022/04/07 00:27:36;;;;;;;3.50;2.10;;;;;;;8.51;81.67;94176.59;5103666;28;20043;-79
2022/04/07 00:30:03;;;;;;;4.63;2.10;;;;;;;8.47;82.19;94173.78;5095511;28;20039;-79
2022/04/07 00:32:29;;;;;;;6.18;2.13;;;;;;;8.52;81.57;94174.75;5087651;28;20036;-78
2022/04/07 00:34:56;;;;;;;4.13;2.17;;;;;;;8.53;81.82;94168.44;5091660;28;20046;-78
2022/04/07 00:37:24;;;;;;;7.40;2.67;;;;;;;8.51;81.40;94165.34;5095019;28;20035;-77
2022/04/07 00:39:53;;;;;;;6.68;2.67;;;;;;;8.47;82.16;94165.91;5097692;28;20421;-77
2022/04/07 00:42:18;;;;;;;7.22;2.75;;;;;;;8.43;81.98;94162.31;5072097;28;20089;-77
2022/04/07 00:44:44;;;;;;;4.82;2.30;;;;;;;8.31;82.58;94161.97;5095658;28;20466;-77
2022/04/07 00:47:11;;;;;;;5.43;2.40;;;;;;;8.35;82.11;94165.56;5101000;28;20127;-77
2022/04/07 00:49:36;;;;;;;7.47;2.20;;;;;;;8.37;82.25;94145.09;5097974;28;20054;-77
2022/04/07 00:52:02;;;;;;;5.18;2.42;;;;;;;8.40;81.57;94157.59;5082695;28;20040;-77
2022/04/07 00:54:30;;;;;;;5.50;1.98;;;;;;;8.36;82.00;94154.03;5085240;28;20089;-76
2022/04/07 00:56:58;;;;;;;3.38;2.00;;;;;;;8.33;82.06;94155.38;5096813;28;20032;-77
2022/04/07 00:59:24;;;;;;;3.67;2.22;;;;;;;8.33;81.86;94150.13;5095391;28;20138;-78
2022/04/07 01:01:50;;;;;;;4.88;2.30;;;;;;;8.38;81.73;94146.66;5099626;28;20496;-77
2022/04/07 01:04:16;;;;;;;4.03;1.90;;;;;;;8.32;81.83;94142.56;5100519;28;20028;-77
2022/04/07 01:06:42;;;;;;;3.70;2.00;;;;;;;8.25;82.36;94142.94;5080745;28;20036;-78
2022/04/07 01:09:11;;;;;;;4.15;2.10;;;;;;;8.33;82.53;94139.66;5073854;28;20047;-78
2022/04/07 01:11:38;;;;;;;3.67;1.80;;;;;;;8.35;82.00;94141.97;5103641;28;20044;-78
2022/04/07 01:14:04;;;;;;;3.38;2.05;;;;;;;8.28;82.37;94136.34;5082258;28;20035;-77
2022/04/07 01:16:30;;;;;;;3.97;2.25;;;;;;;8.32;82.48;94137.31;5098604;28;20572;-78
2022/04/07 01:18:59;;;;;;;4.03;1.92;;;;;;;8.37;82.18;94129.34;5102288;28;20039;-78
2022/04/07 01:21:26;;;;;;;7.35;2.30;;;;;;;8.35;82.68;94133.31;5105557;28;20047;-78
2022/04/07 01:24:05;;;;;;;3.53;2.00;;;;;;;8.37;82.61;94124.13;5095070;28;20047;-77
2022/04/07 01:26:37;;;;;;;5.40;2.10;;;;;;;8.32;82.75;94132.84;5098481;28;20073;-77
2022/04/07 01:29:04;;;;;;;4.00;1.95;;;;;;;8.41;82.21;94125.09;5104883;28;20047;-77
2022/04/07 01:31:31;;;;;;;3.70;2.13;;;;;;;8.46;82.25;94127.66;5101507;28;20560;-78
2022/04/07 01:33:57;;;;;;;3.60;2.08;;;;;;;8.44;82.44;94121.91;5101642;27;20043;-77
2022/04/07 01:36:24;;;;;;;4.53;2.20;;;;;;;8.48;82.09;94120.28;5091516;28;20040;-77
2022/04/07 01:38:50;;;;;;;5.20;2.10;;;;;;;8.50;82.59;94117.38;5104461;28;20659;-77
2022/04/07 01:41:18;;;;;;;4.70;1.98;;;;;;;8.46;82.40;94117.19;5090470;28;20040;-77
2022/04/07 01:43:45;;;;;;;4.35;2.00;;;;;;;8.55;82.56;94113.88;5098175;28;20043;-77
2022/04/07 01:46:12;;;;;;;3.33;2.00;;;;;;;8.53;82.39;94110.78;5096032;28;20114;-77
2022/04/07 01:48:39;;;;;;;6.90;2.25;;;;;;;8.57;82.32;94109.13;5077424;28;20040;-77
2022/04/07 01:51:06;;;;;;;3.58;2.00;;;;;;;8.61;82.26;94107.47;5097776;28;20939;-78
2022/04/07 01:53:34;;;;;;;3.38;2.03;;;;;;;8.64;82.20;94115.53;5100595;28;20565;-78
2022/04/07 01:56:01;;;;;;;3.67;2.20;;;;;;;8.65;82.03;94108.47;5101609;28;20142;-78
2022/04/07 01:58:27;;;;;;;4.50;2.15;;;;;;;8.66;81.87;94104.75;5091839;28;20044;-78
2022/04/07 02:00:54;;;;;;;4.20;2.50;;;;;;;8.74;81.33;94105.94;5108080;28;20108;-78
2022/04/07 02:03:20;;;;;;;5.78;2.30;;;;;;;8.71;81.72;94112.53;5094194;28;20569;-78
2022/04/07 02:05:46;;;;;;;4.38;2.22;;;;;;;8.68;81.95;94118.38;5096881;28;20048;-77
2022/04/07 02:08:12;;;;;;;5.75;2.45;;;;;;;8.64;82.31;94112.13;5091562;28;20047;-77
2022/04/07 02:10:37;;;;;;;4.28;2.40;;;;;;;8.61;82.30;94112.72;5100988;28;20493;-77
2022/04/07 02:13:03;;;;;;;5.28;2.40;;;;;;;8.70;82.15;94121.47;5103718;28;20044;-78
2022/04/07 02:15:28;;;;;;;4.45;2.30;;;;;;;8.77;82.18;94119.22;5089297;28;20050;-78
2022/04/07 02:17:54;;;;;;;4.82;2.28;;;;;;;8.79;81.92;94118.94;5093761;28;20044;-77
2022/04/07 02:20:20;;;;;;;6.60;2.42;;;;;;;8.80;82.57;94118.63;5106097;28;20115;-77
2022/04/07 02:22:46;;;;;;;3.55;2.40;;;;;;;8.87;81.85;94110.38;5097103;28;20516;-77
2022/04/07 02:25:11;;;;;;;4.10;2.47;;;;;;;8.87;82.20;94113.00;5105800;28;20070;-78
2022/04/07 02:27:39;;;;;;;4.65;2.28;;;;;;;8.88;83.07;94121.66;5110540;28;20051;-78
2022/04/07 02:30:09;;;;;;;4.90;2.50;;;;;;;8.86;84.92;94114.06;5109612;28;20064;-78
2022/04/07 02:32:35;;;;;;;4.55;2.42;;;;;;;8.82;86.44;94116.53;5093044;28;20067;-78
2022/04/07 02:35:01;;;;;;;4.03;2.53;;;;;;;8.74;87.74;94105.94;5098670;28;20040;-78
2022/04/07 02:37:26;;;;;;;4.28;2.70;;;;;;;8.71;88.20;94112.53;5109379;28;20077;-78
2022/04/07 02:39:53;;;;;;;5.18;3.13;;;;;;;8.67;87.41;94111.56;5100290;28;20046;-77
2022/04/07 02:42:19;;;;;;;5.60;2.63;;;;;;;8.72;87.48;94108.06;5097054;28;20044;-77
2022/04/07 02:44:45;;;;;;;4.35;2.60;;;;;;;8.74;86.95;94111.19;5099473;28;20054;-77
2022/04/07 02:47:10;;;;;;;4.10;2.60;;;;;;;8.72;86.67;94118.53;5103988;28;20397;-78
2022/04/07 02:49:39;;;;;;;4.70;2.65;;;;;;;8.73;86.12;94115.63;5100895;28;20107;-78
2022/04/07 02:52:10;;;;;;;5.43;2.67;;;;;;;8.78;85.62;94112.91;5093104;28;20040;-78
2022/04/07 02:54:37;;;;;;;6.63;2.50;;;;;;;8.80;85.71;94116.00;5110796;28;20039;-77
2022/04/07 02:57:04;;;;;;;6.93;2.40;;;;;;;8.84;85.23;94117.00;5084798;28;20036;-78
2022/04/07 02:59:30;;;;;;;3.47;2.35;;;;;;;8.80;85.11;94105.53;5109052;28;20039;-77
2022/04/07 03:01:56;;;;;;;4.38;2.60;;;;;;;8.78;85.44;94110.31;5100192;28;20036;-78
2022/04/07 03:04:24;;;;;;;3.45;2.10;;;;;;;8.84;84.62;94101.25;5106634;28;20058;-78
2022/04/07 03:06:53;;;;;;;4.13;2.30;;;;;;;8.78;84.59;94106.91;5082969;28;20056;-78
2022/04/07 03:09:19;;;;;;;3.63;2.33;;;;;;;8.78;84.90;94096.41;5077610;28;20036;-77
2022/04/07 03:11:48;;;;;;;3.90;2.25;;;;;;;8.66;84.90;94099.50;5100346;28;20051;-78
2022/04/07 03:14:14;;;;;;;4.35;2.40;;;;;;;8.64;84.65;94104.28;5107735;28;20047;-77
2022/04/07 03:16:40;;;;;;;3.25;2.03;;;;;;;8.48;85.85;94096.69;5106993;28;20065;-77
2022/04/07 03:19:06;;;;;;;5.40;2.40;;;;;;;8.53;85.13;94095.03;5104235;28;20036;-78
2022/04/07 03:21:33;;;;;;;3.95;2.20;;;;;;;8.47;84.70;94092.50;5093520;28;20123;-78
2022/04/07 03:23:58;;;;;;;4.72;2.20;;;;;;;8.56;84.48;94099.69;5079053;28;20115;-78
2022/04/07 03:26:24;;;;;;;3.95;1.90;;;;;;;8.56;83.74;94090.00;5104706;28;20047;-78
2022/04/07 03:28:49;;;;;;;4.45;2.05;;;;;;;8.49;83.75;94090.38;5100820;28;20056;-78
2022/04/07 03:31:15;;;;;;;3.08;1.90;;;;;;;8.49;83.49;94090.38;5100808;28;20142;-78
2022/04/07 03:33:40;;;;;;;3.15;2.20;;;;;;;8.42;84.09;94089.97;5097473;28;20057;-79
2022/04/07 03:36:06;;;;;;;2.15;1.65;;;;;;;8.37;83.17;94092.66;5083110;28;20036;-78
2022/04/07 03:38:32;;;;;;;2.47;1.70;;;;;;;8.39;83.32;94101.03;5094767;28;20097;-77
2022/04/07 03:40:58;;;;;;;3.05;1.77;;;;;;;8.36;83.50;94091.13;5100555;28;20047;-77
2022/04/07 03:43:23;;;;;;;7.00;1.90;;;;;;;8.35;83.19;94088.75;5092218;28;20050;-78
2022/04/07 03:45:49;;;;;;;2.95;1.80;;;;;;;8.33;83.13;94086.44;5082866;28;20040;-78
2022/04/07 03:48:15;;;;;;;2.42;1.63;;;;;;;8.15;83.94;94086.22;5095304;28;20089;-78
2022/04/07 03:50:41;;;;;;;3.72;1.80;;;;;;;8.22;83.74;94092.94;5091971;28;20039;-78
2022/04/07 03:53:07;;;;;;;3.72;2.10;;;;;;;8.07;84.07;94079.00;5101659;28;20050;-77
2022/04/07 03:55:33;;;;;;;3.03;1.90;;;;;;;8.05;84.08;94081.16;5082944;28;20054;-78
2022/04/07 03:57:59;;;;;;;2.90;1.73;;;;;;;8.07;84.18;94089.50;5081762;28;20044;-77
2022/04/07 04:00:26;;;;;;;2.88;1.77;;;;;;;7.94;84.68;94074.53;5103156;28;20608;-77
2022/04/07 04:02:52;;;;;;;2.33;1.60;;;;;;;7.93;84.89;94083.44;5092262;28;20040;-77
2022/04/07 04:05:18;;;;;;;3.83;1.70;;;;;;;7.92;84.45;94081.91;5091234;28;20035;-77
2022/04/07 04:07:44;;;;;;;8.80;1.92;;;;;;;7.94;84.05;94083.19;5100791;28;20040;-76
2022/04/07 04:10:10;;;;;;;2.05;1.50;;;;;;;7.97;84.06;94085.22;5091412;28;20047;-77
2022/04/07 04:12:35;;;;;;;2.92;1.73;;;;;;;7.96;83.61;94093.38;5092144;28;20047;-77
2022/04/07 04:15:01;;;;;;;3.45;1.58;;;;;;;7.88;83.34;94091.41;5109276;28;20036;-77
2022/04/07 04:17:30;;;;;;;4.68;1.65;;;;;;;7.89;84.34;94092.97;5099825;28;20043;-76
2022/04/07 04:19:55;;;;;;;3.22;1.70;;;;;;;7.80;83.97;94090.19;5110440;28;20394;-77
2022/04/07 04:22:21;;;;;;;4.38;1.80;;;;;;;7.85;83.53;94102.44;5095219;28;20161;-77
2022/04/07 04:24:48;;;;;;;2.88;1.55;;;;;;;7.82;83.48;94097.78;5107745;28;20043;-77
2022/04/07 04:27:13;;;;;;;2.28;1.42;;;;;;;7.72;83.79;94104.72;5098479;28;20048;-77
2022/04/07 04:29:40;;;;;;;4.45;1.50;;;;;;;7.74;83.96;94102.63;5109754;28;20054;-77
2022/04/07 04:32:06;;;;;;;2.92;1.65;;;;;;;7.72;83.27;94099.47;5101399;28;20054;-77
2022/04/07 04:34:32;;;;;;;4.00;1.80;;;;;;;7.76;83.60;94100.47;5102649;28;20497;-78
2022/04/07 04:36:57;;;;;;;2.05;1.38;;;;;;;7.82;83.13;94113.50;5091252;28;20050;-77
2022/04/07 04:39:24;;;;;;;3.85;1.67;;;;;;;7.79;82.59;94094.66;5101451;28;20040;-76
2022/04/07 04:41:50;;;;;;;3.33;1.70;;;;;;;7.79;82.78;94105.13;5100773;28;20036;-78
2022/04/07 04:44:15;;;;;;;6.03;1.63;;;;;;;7.84;82.41;94106.13;5105015;28;20028;-78
2022/04/07 04:46:41;;;;;;;3.72;1.65;;;;;;;7.84;81.68;94100.88;5091682;28;20047;-77
2022/04/07 04:49:06;;;;;;;2.22;1.40;;;;;;;7.69;81.61;94100.06;5105240;28;20039;-77
2022/04/07 04:51:32;;;;;;;5.10;1.83;;;;;;;7.70;81.19;94101.63;5101460;28;20442;-78
2022/04/07 04:53:58;;;;;;;2.97;1.55;;;;;;;7.74;80.88;94097.38;5102668;28;20040;-78
2022/04/07 04:56:23;;;;;;;3.67;1.58;;;;;;;7.78;80.78;94097.56;5095693;28;20055;-77
2022/04/07 04:58:49;;;;;;;3.42;1.58;;;;;;;7.77;79.90;94086.31;5073000;28;20203;-77
2022/04/07 05:01:15;;;;;;;3.65;2.00;;;;;;;7.77;80.13;94090.75;5099437;28;20492;-77
2022/04/07 05:03:40;;;;;;;5.28;1.90;;;;;;;7.67;80.26;94085.69;5089781;28;20040;-78
2022/04/07 05:06:06;;;;;;;3.50;1.70;;;;;;;7.72;80.15;94081.16;5091217;28;20524;-77
2022/04/07 05:08:31;;;;;;;3.47;1.50;;;;;;;7.75;80.03;94083.19;5091411;28;20429;-78
2022/04/07 05:10:57;;;;;;;2.50;1.50;;;;;;;7.72;79.50;94083.78;5099547;28;20048;-77
2022/04/07 05:13:22;;;;;;;4.95;1.90;;;;;;;7.76;79.23;94084.75;5093680;28;20031;-77
2022/04/07 05:15:48;;;;;;;3.30;1.60;;;;;;;7.76;78.99;94082.16;5092419;28;20051;-77
2022/04/07 05:18:14;;;;;;;4.47;1.50;;;;;;;7.80;79.18;94084.94;5072307;28;20036;-77
2022/04/07 05:20:39;;;;;;;3.13;1.63;;;;;;;7.76;79.57;94100.47;5099568;28;20042;-77
2022/04/07 05:23:05;;;;;;;3.42;1.60;;;;;;;7.75;79.01;94098.16;5096358;27;20490;-78
2022/04/07 05:25:30;;;;;;;3.70;1.70;;;;;;;7.78;79.51;94093.09;5092565;28;20043;-77
2022/04/07 05:27:56;;;;;;;3.60;1.60;;;;;;;7.73;79.77;94085.34;5105954;28;20035;-77
2022/04/07 05:30:22;;;;;;;3.03;1.77;;;;;;;7.78;79.73;94087.84;5092213;28;20547;-77
2022/04/07 05:32:48;;;;;;;3.30;1.65;;;;;;;7.74;80.34;94079.03;5082432;28;20089;-77
2022/04/07 05:35:15;;;;;;;5.50;1.98;;;;;;;7.65;81.13;94078.13;5092923;28;20040;-77
2022/04/07 05:37:41;;;;;;;4.18;1.50;;;;;;;7.75;80.38;94080.59;5073646;28;20043;-77
2022/04/07 05:40:10;;;;;;;4.32;1.90;;;;;;;7.69;81.60;94084.34;5073719;28;20040;-77
2022/04/07 05:42:36;;;;;;;2.20;1.48;;;;;;;7.85;80.48;94092.75;5101276;28;20444;-77
2022/04/07 05:45:02;;;;;;;7.03;1.98;;;;;;;7.78;80.63;94082.63;5090988;28;20082;-77
2022/04/07 05:47:28;;;;;;;6.28;1.85;;;;;;;7.91;80.28;94085.59;5089181;28;20040;-77
2022/04/07 05:49:54;;;;;;;2.47;1.60;;;;;;;7.80;81.09;94085.75;5090419;28;20043;-77
2022/04/07 05:52:20;;;;;;;3.72;1.70;;;;;;;7.90;80.07;94065.69;5100502;28;20051;-77
2022/04/07 05:54:46;;;;;;;2.67;1.60;;;;;;;7.92;80.43;94055.72;5097076;28;20047;-78
2022/04/07 05:57:12;;;;;;;3.30;1.70;;;;;;;7.99;80.15;94050.88;5096008;28;20040;-78
2022/04/07 05:59:37;;;;;;;2.10;1.50;;;;;;;8.04;79.56;94056.00;5095943;28;20066;-78
2022/04/07 06:02:03;;;;;;;6.07;1.50;;;;;;;8.13;79.15;94046.44;5086692;28;20051;-79
2022/04/07 06:04:29;;;;;;;3.33;1.90;;;;;;;8.11;79.60;94042.53;5075363;28;20554;-75
2022/04/07 06:06:54;;;;;;;2.15;1.52;;;;;;;8.11;79.07;94038.06;5076048;28;20077;-75
2022/04/07 06:09:20;;;;;;;3.63;1.40;;;;;;;8.17;78.42;94036.13;5101018;28;20521;-77
2022/04/07 06:11:45;;;;;;;4.03;1.45;;;;;;;8.23;78.40;94039.44;5091716;28;20036;-79
2022/04/07 06:14:11;;;;;;;5.03;1.55;;;;;;;8.26;78.18;94038.84;5106621;28;20043;-77
2022/04/07 06:16:37;;;;;;;3.30;1.67;;;;;;;8.23;78.37;94035.00;5106444;28;20044;-78
2022/04/07 06:19:02;;;;;;;2.42;1.48;;;;;;;8.40;77.65;94039.66;5102448;28;20504;-78
2022/04/07 06:21:31;;;;;;;3.20;1.30;;;;;;;8.47;77.82;94042.69;5073785;28;20563;-78
2022/04/07 06:23:57;;;;;;;3.92;1.70;;;;;;;8.56;77.36;94044.63;5097086;28;20032;-76
2022/04/07 06:26:23;;;;;;;5.97;1.30;;;;;;;8.56;77.36;94031.53;5098995;28;20047;-76
2022/04/07 06:28:49;;;;;;;4.47;1.80;;;;;;;8.53;76.75;94037.34;5106149;28;20044;-76
2022/04/07 06:31:15;;;;;;;3.60;1.40;;;;;;;8.51;76.31;94034.25;5094941;28;20050;-76
2022/04/07 06:33:40;;;;;;;4.95;1.52;;;;;;;8.48;76.48;94040.84;5096960;28;20100;-77
2022/04/07 06:36:06;;;;;;;3.67;1.40;;;;;;;8.44;76.62;94035.41;5099994;28;20115;-76
2022/04/07 06:38:33;;;;;;;2.63;1.20;;;;;;;8.53;74.91;94032.13;5093804;28;20051;-77
2022/04/07 06:41:01;;;;;;;2.58;1.08;;;;;;;8.55;75.31;94032.59;5097220;28;20032;-77
2022/04/07 06:43:27;;;;;;;4.10;1.30;;;;;;;8.63;74.95;94027.47;5090343;28;20040;-76
2022/04/07 06:45:53;;;;;;;4.55;1.30;;;;;;;8.56;76.01;94029.69;5102155;28;20066;-76
2022/04/07 06:48:19;;;;;;;2.30;1.23;;;;;;;8.75;74.83;94028.78;5099219;28;20036;-76
2022/04/07 06:50:45;;;;;;;3.40;1.30;;;;;;;8.84;73.67;94027.81;5100049;28;20048;-77
2022/04/07 06:53:14;;;;;;;2.20;1.33;;;;;;;8.97;74.52;94025.47;5088406;28;20044;-77
2022/04/07 06:55:40;;;;;;;3.45;1.20;;;;;;;9.04;73.04;94017.97;5106160;28;20047;-77
2022/04/07 06:58:09;;;;;;;1.52;1.13;;;;;;;9.16;73.10;94007.69;5079085;28;20036;-76
2022/04/07 07:00:41;;;;;;;3.50;1.00;;;;;;;9.14;71.08;93994.09;5097201;28;20112;-76
2022/04/07 07:03:06;;;;;;;3.03;1.20;;;;;;;9.26;70.85;94005.94;5093319;28;20035;-77
2022/04/07 07:05:34;;;;;;;2.25;0.98;;;;;;;9.37;69.46;94007.25;5107354;28;20390;-76
2022/04/07 07:08:20;;;;;;;1.50;1.25;;;;;;;9.44;69.87;93997.13;5096525;28;20097;-77
2022/04/07 07:10:47;;;;;;;1.73;0.93;;;;;;;9.60;68.62;93994.91;5108886;28;20114;-77
2022/04/07 07:13:16;;;;;;;1.73;0.88;;;;;;;9.56;66.96;93967.69;5111654;27;20044;-76
2022/04/07 07:15:43;;;;;;;2.25;0.90;;;;;;;9.82;66.43;93980.94;5101625;28;20047;-76
2022/04/07 07:18:08;;;;;;;2.60;1.05;;;;;;;9.93;66.40;93985.94;5083069;28;20036;-76
2022/04/07 07:20:35;;;;;;;1.30;1.00;;;;;;;9.98;64.06;93975.31;5105864;28;20046;-76
2022/04/07 07:23:00;;;;;;;0.80;0.80;;;;;;;9.95;64.85;93978.53;5097286;28;20032;-76
2022/04/07 07:25:27;;;;;;;3.85;1.00;;;;;;;10.05;63.24;93983.53;5092735;28;20107;-76
2022/04/07 07:27:53;;;;;;;2.60;0.90;;;;;;;10.14;62.41;93981.72;5074324;28;20485;-76
2022/04/07 07:30:19;;;;;;;2.85;0.82;;;;;;;10.10;62.53;93980.78;5096734;28;20044;-75
2022/04/07 07:32:47;;;;;;;2.17;0.80;;;;;;;10.30;62.52;93973.41;5085880;28;20098;-77
2022/04/07 07:35:14;;;;;;;0.60;0.60;;;;;;;10.36;61.62;93972.25;5095974;28;20104;-76
2022/04/07 07:37:51;;;;;;;1.27;0.65;;;;;;;10.40;60.42;93978.41;5107308;28;20051;-77
2022/04/07 07:40:18;;;;;;;2.72;1.00;;;;;;;10.46;59.77;93969.31;5093538;28;20116;-76
2022/04/07 07:42:44;;;;;;;0.77;0.77;;;;;;;10.58;59.69;93980.00;5099033;28;20082;-78
2022/04/07 07:45:10;;;;;;;3.63;0.82;;;;;;;10.45;59.37;93965.13;5107123;28;20039;-76
2022/04/07 07:47:36;;;;;;;1.88;0.70;;;;;;;10.57;59.04;93970.59;5104536;28;20048;-79
2022/04/07 07:50:02;;;;;;;2.30;0.82;;;;;;;10.64;59.35;93956.22;5089328;28;20035;-78
2022/04/07 07:52:28;;;;;;;4.75;0.77;;;;;;;10.67;59.36;93955.59;5104666;28;20039;-75
2022/04/07 07:54:53;;;;;;;7.13;0.70;;;;;;;10.87;59.14;93949.72;5110569;28;20448;-76
2022/04/07 07:57:19;;;;;;;3.28;0.90;;;;;;;10.91;58.23;93940.13;5106504;28;20506;-76
2022/04/07 07:59:45;;;;;;;3.25;0.82;;;;;;;10.88;58.75;93929.47;5107581;28;20036;-78
2022/04/07 08:02:11;;;;;;;0.77;0.77;;;;;;;11.05;56.54;93955.78;5078256;28;20413;-76
2022/04/07 08:04:36;;;;;;;1.67;0.85;;;;;;;10.94;57.43;93948.50;5076171;28;20499;-75
2022/04/07 08:07:02;;;;;;;1.27;0.80;;;;;;;11.09;56.71;93940.13;5101994;28;20451;-76
2022/04/07 08:09:28;;;;;;;1.98;0.88;;;;;;;11.30;57.33;93950.03;5107945;28;20051;-77
2022/04/07 08:11:54;;;;;;;1.90;1.02;;;;;;;11.16;56.15;93935.19;5096740;28;20396;-76
2022/04/07 08:14:19;;;;;;;2.10;1.00;;;;;;;11.34;55.59;93922.00;5105756;28;20054;-76
2022/04/07 08:16:45;;;;;;;1.42;0.50;;;;;;;11.42;55.05;93939.63;5106615;28;20032;-76
2022/04/07 08:19:11;;;;;;;0.80;0.80;;;;;;;11.41;54.41;93919.66;5107785;28;20494;-79
2022/04/07 08:21:37;;;;;;;2.15;0.68;;;;;;;11.32;54.55;93937.31;5076905;28;20123;-75
2022/04/07 08:24:04;;;;;;;3.33;1.05;;;;;;;11.47;53.51;93913.13;5096504;28;20440;-74
2022/04/07 08:26:29;;;;;;;2.28;0.90;;;;;;;11.44;53.55;93940.09;5093833;28;20036;-77
2022/04/07 08:28:55;;;;;;;0.63;0.60;;;;;;;11.50;53.32;93923.03;5091071;28;20047;-76
2022/04/07 08:31:21;;;;;;;0.88;0.63;;;;;;;11.48;54.13;93914.69;5093006;28;20048;-76
2022/04/07 08:33:46;;;;;;;4.30;0.90;;;;;;;11.45;53.60;93910.03;5101438;28;20489;-74
2022/04/07 08:36:12;;;;;;;4.47;0.93;;;;;;;11.41;54.11;93898.59;5108884;28;20040;-78
2022/04/07 08:38:38;;;;;;;1.25;0.50;;;;;;;11.54;54.35;93887.06;5097842;28;20092;-76
2022/04/07 08:41:08;;;;;;;2.17;0.73;;;;;;;11.90;54.24;93893.75;5096066;28;20032;-77
2022/04/07 08:43:38;;;;;;;1.70;0.90;;;;;;;12.03;52.27;93893.91;5083520;28;20040;-74
2022/04/07 08:46:08;;;;;;;1.17;0.77;;;;;;;12.15;54.26;93888.72;5096202;28;20516;-75
2022/04/07 08:48:36;;;;;;;1.65;0.63;;;;;;;12.18;51.78;93893.34;5100583;28;20074;-76
2022/04/07 08:51:02;;;;;;;0.63;0.63;;;;;;;12.17;50.89;93891.81;5104334;28;20102;-74
2022/04/07 08:53:29;;;;;;;1.67;0.80;;;;;;;12.36;50.80;93903.81;5102772;28;20047;-73
2022/04/07 08:55:54;;;;;;;1.85;0.90;;;;;;;12.33;50.40;93867.53;5098658;28;20150;-72
2022/04/07 08:58:20;;;;;;;1.63;0.90;;;;;;;12.44;50.67;93879.22;5106689;28;20115;-72
2022/04/07 09:00:47;;;;;;;3.40;0.80;;;;;;;12.39;50.16;93872.28;5100006;28;20054;-72
2022/04/07 09:03:13;;;;;;;2.28;1.05;;;;;;;12.54;49.27;93865.69;5108628;28;20477;-72
2022/04/07 09:05:52;;;;;;;2.40;0.57;;;;;;;12.81;48.73;93860.97;5095781;28;20046;-72
2022/04/07 09:08:18;;;;;;;0.85;0.77;;;;;;;12.91;48.26;93850.00;5083778;28;20051;-72
2022/04/07 09:10:53;;;;;;;1.58;0.55;;;;;;;12.85;47.58;93867.16;5088265;28;20044;-73
2022/04/07 09:13:18;;;;;;;2.55;0.80;;;;;;;12.90;48.30;93858.25;5104641;28;20081;-72
2022/04/07 09:15:45;;;;;;;1.92;0.90;;;;;;;12.99;48.43;93857.06;5096361;28;20044;-72
2022/04/07 09:18:10;;;;;;;1.50;0.80;;;;;;;13.01;47.88;93843.56;5105295;28;20043;-73
2022/04/07 09:20:43;;;;;;;1.20;0.68;;;;;;;13.07;47.01;93870.53;5096116;28;20127;-73
2022/04/07 09:23:11;;;;;;;1.23;0.73;;;;;;;13.00;47.66;93869.19;5089015;28;20036;-73
2022/04/07 09:25:44;;;;;;;1.15;0.73;;;;;;;13.13;47.46;93834.88;5093077;28;20127;-72
2022/04/07 09:28:11;;;;;;;0.95;0.65;;;;;;;13.27;47.11;93845.94;5087599;28;20379;-73
2022/04/07 09:30:37;;;;;;;1.17;0.65;;;;;;;13.32;46.42;93851.03;5084766;28;20040;-73
2022/04/07 09:33:03;;;;;;;3.20;1.20;;;;;;;13.24;45.97;93825.44;5101309;27;20046;-73
2022/04/07 09:35:29;;;;;;;0.75;0.70;;;;;;;13.44;45.71;93812.53;5096262;27;20036;-74
2022/04/07 09:38:01;;;;;;;1.55;0.80;;;;;;;13.42;45.59;93835.84;5090669;28;20061;-74
2022/04/07 09:40:27;;;;;;;0.57;0.57;;;;;;;13.44;45.41;93825.75;5089751;28;20048;-73
2022/04/07 09:42:58;;;;;;;7.63;1.35;;;;;;;13.64;44.86;93806.38;5094490;28;20293;-73
2022/04/07 09:45:24;;;;;;;2.15;0.60;;;;;;;13.69;45.41;93814.09;5089073;28;20048;-73
2022/04/07 09:47:50;;;;;;;4.45;0.75;;;;;;;13.81;45.11;93809.91;5090671;28;20062;-73
2022/04/07 09:50:31;;;;;;;1.17;0.82;;;;;;;14.07;43.60;93800.88;5104555;27;20481;-72
2022/04/07 09:52:57;;;;;;;2.40;0.70;;;;;;;14.12;43.50;93797.97;5082841;28;20044;-72
2022/04/07 09:55:26;;;;;;;0.85;0.63;;;;;;;14.46;43.47;93780.81;5091655;28;20451;-73
2022/04/07 09:57:53;;;;;;;1.58;0.45;;;;;;;14.29;43.71;93779.19;5098342;28;20040;-72
2022/04/07 10:00:19;;;;;;;3.97;0.88;;;;;;;14.29;43.65;93776.56;5098835;27;20036;-73
2022/04/07 10:02:45;;;;;;;2.40;0.88;;;;;;;14.44;43.64;93776.94;5092761;28;20429;-73
2022/04/07 10:05:11;;;;;;;2.47;0.73;;;;;;;14.42;43.51;93766.72;5100269;28;20044;-73
2022/04/07 10:07:38;;;;;;;1.80;0.70;;;;;;;14.51;43.44;93766.56;5096698;28;20040;-73
2022/04/07 10:10:04;;;;;;;3.60;0.80;;;;;;;14.30;43.95;93751.66;5104606;28;20040;-76
2022/04/07 10:12:33;;;;;;;2.08;0.95;;;;;;;14.25;44.54;93754.53;5100943;28;20047;-75
2022/04/07 10:14:58;;;;;;;1.83;0.80;;;;;;;14.10;45.46;93747.31;5091627;28;20111;-74
2022/04/07 10:17:24;;;;;;;1.27;0.77;;;;;;;14.07;44.94;93740.03;5080292;28;20130;-76
2022/04/07 10:20:06;;;;;;;0.77;0.68;;;;;;;14.29;43.83;93739.50;5079900;28;20047;-75
2022/04/07 10:22:59;;;;;;;0.55;0.50;;;;;;;14.48;43.25;93735.47;5094569;28;20092;-78
2022/04/07 10:25:27;;;;;;;1.38;0.70;;;;;;;14.61;42.99;93721.09;5087696;28;20051;-77
2022/04/07 10:27:57;;;;;;;0.98;0.80;;;;;;;15.04;42.03;93721.44;5083314;28;20410;-75
2022/04/07 10:30:23;;;;;;;1.23;0.73;;;;;;;14.93;42.53;93745.03;5091969;28;20044;-75
2022/04/07 10:32:52;;;;;;;3.20;0.77;;;;;;;14.65;42.88;93722.00;5073028;28;20043;-74
2022/04/07 10:35:31;;;;;;;0.85;0.70;;;;;;;15.50;42.37;93723.66;5105420;28;20493;-75
2022/04/07 10:37:59;;;;;;;1.85;0.80;;;;;;;15.02;41.61;93718.38;5102991;28;20044;-75
2022/04/07 10:40:38;;;;;;;2.35;0.60;;;;;;;14.86;43.03;93694.53;5105477;28;20590;-75
2022/04/07 10:43:05;;;;;;;1.20;0.75;;;;;;;15.50;41.36;93691.84;5106253;28;20044;-74
2022/04/07 10:45:34;;;;;;;1.15;0.50;;;;;;;16.36;40.65;93683.03;5087585;28;20110;-74
2022/04/07 10:48:24;;;;;;;0.50;0.50;;;;;;;15.98;41.66;93681.16;5076527;28;20051;-74
2022/04/07 10:50:53;;;;;;;2.50;0.60;;;;;;;15.83;41.38;93672.13;5082562;28;20043;-74
2022/04/07 10:53:19;;;;;;;2.28;0.70;;;;;;;15.69;41.21;93667.28;5083718;28;20085;-75
2022/04/07 10:55:55;;;;;;;1.85;0.60;;;;;;;15.27;40.66;93657.25;5118611;27;20120;-75
2022/04/07 10:58:21;;;;;;;0.70;0.63;;;;;;;14.93;41.80;93665.56;5097995;28;20485;-74
2022/04/07 11:00:47;;;;;;;2.70;0.73;;;;;;;15.17;41.84;93671.78;5109017;28;20067;-74
2022/04/07 11:03:18;;;;;;;1.52;0.82;;;;;;;15.18;41.70;93649.50;5106733;28;20466;-74
2022/04/07 11:05:58;;;;;;;4.53;0.75;;;;;;;15.22;41.02;93635.19;5079615;28;20055;-75
2022/04/07 11:08:23;;;;;;;5.38;0.80;;;;;;;15.05;41.35;93654.88;5110410;28;20043;-74
2022/04/07 11:10:50;;;;;;;1.30;0.57;;;;;;;14.96;40.95;93641.03;5094866;28;20935;-75
2022/04/07 11:13:16;;;;;;;1.70;0.80;;;;;;;14.91;41.89;93641.28;5087780;28;20028;-77
2022/04/07 11:15:41;;;;;;;2.05;0.60;;;;;;;14.84;42.89;93630.53;5097867;28;20067;-75
2022/04/07 11:18:53;;;;;;;0.57;0.57;;;;;;;14.82;41.42;93627.47;5104114;28;20035;-76
2022/04/07 11:21:18;;;;;;;5.40;0.90;;;;;;;14.65;42.11;93645.22;5101304;28;20131;-76
2022/04/07 11:23:44;;;;;;;1.10;0.70;;;;;;;14.64;42.48;93606.63;5103918;28;20067;-76
2022/04/07 11:26:27;;;;;;;0.93;0.68;;;;;;;14.64;41.84;93611.91;5080928;28;22382;-78
2022/04/07 11:29:04;;;;;;;3.78;0.73;;;;;;;14.69;42.17;93624.13;5091718;28;20043;-78
2022/04/07 11:31:51;;;;;;;2.08;0.85;;;;;;;14.66;42.52;93614.97;5111755;28;20046;-77
2022/04/07 11:34:35;;;;;;;2.30;1.10;;;;;;;14.81;42.30;93616.13;5107183;28;20566;-76
2022/04/07 11:37:06;;;;;;;2.75;1.00;;;;;;;14.72;41.68;93608.34;5110727;28;20409;-77
2022/04/07 11:39:33;;;;;;;4.20;0.50;;;;;;;14.62;42.25;93608.81;5108503;28;20463;-75